sensor_id;sensor_type;location;lat;lon;timestamp;P1;durP1;ratioP1;P2;durP2;ratioP2
57241;SDS011;43095;53.302;5.786;2023-06-14T00:00:44;8.93;;;2.30;;
57241;SDS011;43095;53.302;5.786;2023-06-14T00:03:10;9.20;;;2.50;;
57241;SDS011;43095;53.302;5.786;2023-06-14T00:05:38;7.32;;;2.83;;
57241;SDS011;43095;53.302;5.786;2023-06-14T00:08:09;4.22;;;2.60;;
57241;SDS011;43095;53.302;5.786;2023-06-14T00:10:36;4.78;;;2.33;;
57241;SDS011;43095;53.302;5.786;2023-06-14T00:13:03;5.93;;;2.83;;
57241;SDS011;43095;53.302;5.786;2023-06-14T00:15:31;4.93;;;2.28;;
57241;SDS011;43095;53.302;5.786;2023-06-14T00:17:58;5.00;;;2.30;;
57241;SDS011;43095;53.302;5.786;2023-06-14T00:20:28;5.53;;;2.30;;
57241;SDS011;43095;53.302;5.786;2023-06-14T00:22:57;6.47;;;2.35;;
57241;SDS011;43095;53.302;5.786;2023-06-14T00:25:24;9.63;;;2.50;;
57241;SDS011;43095;53.302;5.786;2023-06-14T00:27:55;7.68;;;2.83;;
57241;SDS011;43095;53.302;5.786;2023-06-14T00:30:23;4.82;;;2.35;;
57241;SDS011;43095;53.302;5.786;2023-06-14T00:32:50;7.45;;;2.53;;
57241;SDS011;43095;53.302;5.786;2023-06-14T00:35:18;6.43;;;2.65;;
57241;SDS011;43095;53.302;5.786;2023-06-14T00:37:45;2.75;;;2.13;;
57241;SDS011;43095;53.302;5.786;2023-06-14T00:40:11;7.53;;;2.60;;
57241;SDS011;43095;53.302;5.786;2023-06-14T00:42:39;5.95;;;2.15;;
57241;SDS011;43095;53.302;5.786;2023-06-14T00:45:06;4.90;;;2.55;;
57241;SDS011;43095;53.302;5.786;2023-06-14T00:47:33;7.20;;;2.33;;
57241;SDS011;43095;53.302;5.786;2023-06-14T00:50:01;5.00;;;2.28;;
57241;SDS011;43095;53.302;5.786;2023-06-14T00:52:28;4.25;;;2.30;;
57241;SDS011;43095;53.302;5.786;2023-06-14T00:54:56;6.97;;;2.75;;
57241;SDS011;43095;53.302;5.786;2023-06-14T00:57:23;6.50;;;2.40;;
57241;SDS011;43095;53.302;5.786;2023-06-14T00:59:50;4.70;;;2.00;;
57241;SDS011;43095;53.302;5.786;2023-06-14T01:02:17;4.50;;;2.20;;
57241;SDS011;43095;53.302;5.786;2023-06-14T01:04:47;5.68;;;2.05;;
57241;SDS011;43095;53.302;5.786;2023-06-14T01:07:23;5.88;;;1.63;;
57241;SDS011;43095;53.302;5.786;2023-06-14T01:15:17;4.47;;;1.70;;
57241;SDS011;43095;53.302;5.786;2023-06-14T01:17:44;5.32;;;1.65;;
57241;SDS011;43095;53.302;5.786;2023-06-14T01:20:13;4.30;;;1.73;;
57241;SDS011;43095;53.302;5.786;2023-06-14T01:22:51;2.85;;;1.25;;
57241;SDS011;43095;53.302;5.786;2023-06-14T01:25:21;6.68;;;1.75;;
57241;SDS011;43095;53.302;5.786;2023-06-14T01:27:53;2.63;;;1.42;;
57241;SDS011;43095;53.302;5.786;2023-06-14T01:30:25;5.20;;;2.15;;
57241;SDS011;43095;53.302;5.786;2023-06-14T01:32:53;6.28;;;2.03;;
57241;SDS011;43095;53.302;5.786;2023-06-14T01:35:21;5.63;;;2.30;;
57241;SDS011;43095;53.302;5.786;2023-06-14T01:37:49;5.75;;;2.05;;
57241;SDS011;43095;53.302;5.786;2023-06-14T01:40:17;4.75;;;2.33;;
57241;SDS011;43095;53.302;5.786;2023-06-14T01:42:44;3.00;;;1.60;;
57241;SDS011;43095;53.302;5.786;2023-06-14T01:45:13;4.47;;;2.03;;
57241;SDS011;43095;53.302;5.786;2023-06-14T01:47:40;4.50;;;1.80;;
57241;SDS011;43095;53.302;5.786;2023-06-14T01:50:07;6.82;;;2.40;;
57241;SDS011;43095;53.302;5.786;2023-06-14T01:52:36;5.13;;;2.30;;
57241;SDS011;43095;53.302;5.786;2023-06-14T01:55:04;4.72;;;2.05;;
57241;SDS011;43095;53.302;5.786;2023-06-14T01:57:35;6.65;;;2.22;;
57241;SDS011;43095;53.302;5.786;2023-06-14T02:00:03;4.63;;;1.65;;
57241;SDS011;43095;53.302;5.786;2023-06-14T02:02:38;4.25;;;1.92;;
57241;SDS011;43095;53.302;5.786;2023-06-14T02:05:06;3.55;;;2.30;;
57241;SDS011;43095;53.302;5.786;2023-06-14T02:07:33;3.67;;;2.30;;
57241;SDS011;43095;53.302;5.786;2023-06-14T02:10:00;5.80;;;2.50;;
57241;SDS011;43095;53.302;5.786;2023-06-14T02:12:26;4.88;;;2.28;;
57241;SDS011;43095;53.302;5.786;2023-06-14T02:14:55;5.82;;;2.28;;
57241;SDS011;43095;53.302;5.786;2023-06-14T02:17:22;7.93;;;2.45;;
57241;SDS011;43095;53.302;5.786;2023-06-14T02:19:49;5.25;;;2.60;;
57241;SDS011;43095;53.302;5.786;2023-06-14T02:22:17;5.05;;;2.33;;
57241;SDS011;43095;53.302;5.786;2023-06-14T02:24:43;7.32;;;2.35;;
57241;SDS011;43095;53.302;5.786;2023-06-14T02:27:11;3.58;;;2.03;;
57241;SDS011;43095;53.302;5.786;2023-06-14T02:29:38;3.35;;;2.33;;
57241;SDS011;43095;53.302;5.786;2023-06-14T02:32:05;4.22;;;2.20;;
57241;SDS011;43095;53.302;5.786;2023-06-14T02:34:34;5.00;;;2.45;;
57241;SDS011;43095;53.302;5.786;2023-06-14T02:37:01;4.68;;;2.53;;
57241;SDS011;43095;53.302;5.786;2023-06-14T02:39:31;6.55;;;2.67;;
57241;SDS011;43095;53.302;5.786;2023-06-14T02:41:58;5.85;;;2.50;;
57241;SDS011;43095;53.302;5.786;2023-06-14T02:44:26;5.03;;;2.53;;
57241;SDS011;43095;53.302;5.786;2023-06-14T02:46:54;6.40;;;3.33;;
57241;SDS011;43095;53.302;5.786;2023-06-14T02:49:21;3.97;;;2.55;;
57241;SDS011;43095;53.302;5.786;2023-06-14T02:51:48;3.55;;;2.08;;
57241;SDS011;43095;53.302;5.786;2023-06-14T02:54:15;4.95;;;2.75;;
57241;SDS011;43095;53.302;5.786;2023-06-14T02:56:42;7.90;;;3.03;;
57241;SDS011;43095;53.302;5.786;2023-06-14T02:59:09;6.00;;;3.10;;
57241;SDS011;43095;53.302;5.786;2023-06-14T03:01:37;7.75;;;2.80;;
57241;SDS011;43095;53.302;5.786;2023-06-14T03:04:09;7.57;;;2.88;;
57241;SDS011;43095;53.302;5.786;2023-06-14T03:09:06;4.97;;;2.58;;
57241;SDS011;43095;53.302;5.786;2023-06-14T03:11:38;5.72;;;2.88;;
57241;SDS011;43095;53.302;5.786;2023-06-14T03:14:05;5.05;;;2.97;;
57241;SDS011;43095;53.302;5.786;2023-06-14T03:16:35;5.43;;;2.95;;
57241;SDS011;43095;53.302;5.786;2023-06-14T03:19:04;6.28;;;2.60;;
57241;SDS011;43095;53.302;5.786;2023-06-14T03:21:32;10.52;;;3.10;;
57241;SDS011;43095;53.302;5.786;2023-06-14T03:24:02;4.03;;;2.92;;
57241;SDS011;43095;53.302;5.786;2023-06-14T03:26:30;4.75;;;2.88;;
57241;SDS011;43095;53.302;5.786;2023-06-14T03:28:59;9.15;;;3.38;;
57241;SDS011;43095;53.302;5.786;2023-06-14T03:31:28;8.13;;;3.25;;
57241;SDS011;43095;53.302;5.786;2023-06-14T03:34:01;9.68;;;3.00;;
57241;SDS011;43095;53.302;5.786;2023-06-14T03:36:28;6.30;;;3.08;;
57241;SDS011;43095;53.302;5.786;2023-06-14T03:38:55;6.72;;;3.00;;
57241;SDS011;43095;53.302;5.786;2023-06-14T03:41:23;6.45;;;3.10;;
57241;SDS011;43095;53.302;5.786;2023-06-14T03:43:50;5.10;;;3.17;;
57241;SDS011;43095;53.302;5.786;2023-06-14T03:46:17;8.07;;;3.30;;
57241;SDS011;43095;53.302;5.786;2023-06-14T03:48:44;7.25;;;2.65;;
57241;SDS011;43095;53.302;5.786;2023-06-14T03:51:12;9.70;;;3.63;;
57241;SDS011;43095;53.302;5.786;2023-06-14T03:53:39;7.47;;;3.08;;
57241;SDS011;43095;53.302;5.786;2023-06-14T03:56:27;8.27;;;3.10;;
57241;SDS011;43095;53.302;5.786;2023-06-14T03:58:54;9.75;;;3.05;;
57241;SDS011;43095;53.302;5.786;2023-06-14T04:01:23;8.70;;;3.40;;
57241;SDS011;43095;53.302;5.786;2023-06-14T04:03:53;9.52;;;3.50;;
57241;SDS011;43095;53.302;5.786;2023-06-14T04:06:20;8.07;;;3.58;;
57241;SDS011;43095;53.302;5.786;2023-06-14T04:08:47;6.45;;;3.25;;
57241;SDS011;43095;53.302;5.786;2023-06-14T04:11:15;5.50;;;3.15;;
57241;SDS011;43095;53.302;5.786;2023-06-14T04:13:42;6.10;;;2.75;;
57241;SDS011;43095;53.302;5.786;2023-06-14T04:16:10;6.18;;;3.55;;
57241;SDS011;43095;53.302;5.786;2023-06-14T04:18:37;6.93;;;3.53;;
57241;SDS011;43095;53.302;5.786;2023-06-14T04:21:04;5.97;;;3.35;;
57241;SDS011;43095;53.302;5.786;2023-06-14T04:23:32;6.90;;;3.35;;
57241;SDS011;43095;53.302;5.786;2023-06-14T04:26:00;3.72;;;2.90;;
57241;SDS011;43095;53.302;5.786;2023-06-14T04:28:28;6.00;;;2.92;;
57241;SDS011;43095;53.302;5.786;2023-06-14T04:30:57;6.60;;;3.88;;
57241;SDS011;43095;53.302;5.786;2023-06-14T04:33:30;4.72;;;3.05;;
57241;SDS011;43095;53.302;5.786;2023-06-14T04:35:58;7.50;;;3.00;;
57241;SDS011;43095;53.302;5.786;2023-06-14T04:38:26;3.83;;;2.65;;
57241;SDS011;43095;53.302;5.786;2023-06-14T04:40:56;8.18;;;3.38;;
57241;SDS011;43095;53.302;5.786;2023-06-14T04:43:23;6.85;;;2.88;;
57241;SDS011;43095;53.302;5.786;2023-06-14T04:45:55;8.38;;;3.55;;
57241;SDS011;43095;53.302;5.786;2023-06-14T04:48:24;4.72;;;2.70;;
57241;SDS011;43095;53.302;5.786;2023-06-14T04:50:51;7.93;;;2.90;;
57241;SDS011;43095;53.302;5.786;2023-06-14T04:53:20;6.47;;;3.50;;
57241;SDS011;43095;53.302;5.786;2023-06-14T04:55:52;6.97;;;3.22;;
57241;SDS011;43095;53.302;5.786;2023-06-14T04:58:20;8.70;;;3.67;;
57241;SDS011;43095;53.302;5.786;2023-06-14T05:00:47;6.80;;;3.42;;
57241;SDS011;43095;53.302;5.786;2023-06-14T05:03:14;4.07;;;3.15;;
57241;SDS011;43095;53.302;5.786;2023-06-14T05:05:41;6.55;;;3.17;;
57241;SDS011;43095;53.302;5.786;2023-06-14T05:08:08;8.85;;;3.13;;
57241;SDS011;43095;53.302;5.786;2023-06-14T05:10:36;6.15;;;3.08;;
57241;SDS011;43095;53.302;5.786;2023-06-14T05:13:04;6.47;;;3.20;;
57241;SDS011;43095;53.302;5.786;2023-06-14T05:15:31;6.93;;;3.83;;
57241;SDS011;43095;53.302;5.786;2023-06-14T05:17:58;7.03;;;3.88;;
57241;SDS011;43095;53.302;5.786;2023-06-14T05:20:26;5.75;;;3.03;;
57241;SDS011;43095;53.302;5.786;2023-06-14T05:22:53;6.55;;;3.50;;
57241;SDS011;43095;53.302;5.786;2023-06-14T05:25:20;6.88;;;3.75;;
57241;SDS011;43095;53.302;5.786;2023-06-14T05:27:47;6.75;;;3.40;;
57241;SDS011;43095;53.302;5.786;2023-06-14T05:30:14;8.45;;;3.55;;
57241;SDS011;43095;53.302;5.786;2023-06-14T05:32:42;8.48;;;3.47;;
57241;SDS011;43095;53.302;5.786;2023-06-14T05:35:08;6.13;;;4.20;;
57241;SDS011;43095;53.302;5.786;2023-06-14T05:37:35;9.55;;;4.40;;
57241;SDS011;43095;53.302;5.786;2023-06-14T05:40:03;7.55;;;3.55;;
57241;SDS011;43095;53.302;5.786;2023-06-14T05:42:35;6.53;;;3.38;;
57241;SDS011;43095;53.302;5.786;2023-06-14T05:45:02;7.40;;;3.25;;
57241;SDS011;43095;53.302;5.786;2023-06-14T05:47:29;9.27;;;3.45;;
57241;SDS011;43095;53.302;5.786;2023-06-14T05:49:56;7.45;;;3.80;;
57241;SDS011;43095;53.302;5.786;2023-06-14T05:52:22;6.88;;;3.35;;
57241;SDS011;43095;53.302;5.786;2023-06-14T05:54:49;6.25;;;2.90;;
57241;SDS011;43095;53.302;5.786;2023-06-14T05:57:16;5.97;;;3.95;;
57241;SDS011;43095;53.302;5.786;2023-06-14T05:59:43;8.38;;;4.18;;
57241;SDS011;43095;53.302;5.786;2023-06-14T06:02:10;10.45;;;3.85;;
57241;SDS011;43095;53.302;5.786;2023-06-14T06:04:36;8.85;;;4.00;;
57241;SDS011;43095;53.302;5.786;2023-06-14T06:07:03;8.07;;;3.83;;
57241;SDS011;43095;53.302;5.786;2023-06-14T06:09:32;9.00;;;3.55;;
57241;SDS011;43095;53.302;5.786;2023-06-14T06:11:59;6.63;;;3.60;;
57241;SDS011;43095;53.302;5.786;2023-06-14T06:14:26;6.07;;;4.05;;
57241;SDS011;43095;53.302;5.786;2023-06-14T06:16:53;9.30;;;3.63;;
57241;SDS011;43095;53.302;5.786;2023-06-14T06:19:20;11.00;;;4.10;;
57241;SDS011;43095;53.302;5.786;2023-06-14T06:21:47;8.65;;;3.72;;
57241;SDS011;43095;53.302;5.786;2023-06-14T06:24:14;8.10;;;3.83;;
57241;SDS011;43095;53.302;5.786;2023-06-14T06:26:41;11.00;;;4.43;;
57241;SDS011;43095;53.302;5.786;2023-06-14T06:29:08;10.20;;;3.80;;
57241;SDS011;43095;53.302;5.786;2023-06-14T06:31:35;6.78;;;3.58;;
57241;SDS011;43095;53.302;5.786;2023-06-14T06:34:02;6.97;;;3.92;;
57241;SDS011;43095;53.302;5.786;2023-06-14T06:36:29;6.43;;;3.65;;
57241;SDS011;43095;53.302;5.786;2023-06-14T06:38:56;8.18;;;4.47;;
57241;SDS011;43095;53.302;5.786;2023-06-14T06:41:23;8.13;;;4.13;;
57241;SDS011;43095;53.302;5.786;2023-06-14T06:43:49;6.25;;;3.55;;
57241;SDS011;43095;53.302;5.786;2023-06-14T06:46:16;8.13;;;3.60;;
57241;SDS011;43095;53.302;5.786;2023-06-14T06:48:45;9.82;;;4.13;;
57241;SDS011;43095;53.302;5.786;2023-06-14T06:51:12;7.95;;;3.35;;
57241;SDS011;43095;53.302;5.786;2023-06-14T06:53:41;5.40;;;3.60;;
57241;SDS011;43095;53.302;5.786;2023-06-14T06:56:15;7.18;;;3.38;;
57241;SDS011;43095;53.302;5.786;2023-06-14T06:58:41;6.75;;;3.85;;
57241;SDS011;43095;53.302;5.786;2023-06-14T07:01:08;9.73;;;4.25;;
57241;SDS011;43095;53.302;5.786;2023-06-14T07:03:35;7.40;;;3.72;;
57241;SDS011;43095;53.302;5.786;2023-06-14T07:06:02;9.73;;;3.15;;
57241;SDS011;43095;53.302;5.786;2023-06-14T07:08:29;5.78;;;3.30;;
57241;SDS011;43095;53.302;5.786;2023-06-14T07:10:56;7.72;;;3.42;;
57241;SDS011;43095;53.302;5.786;2023-06-14T07:13:23;5.60;;;3.40;;
57241;SDS011;43095;53.302;5.786;2023-06-14T07:15:50;7.50;;;3.20;;
57241;SDS011;43095;53.302;5.786;2023-06-14T07:18:19;7.30;;;3.22;;
57241;SDS011;43095;53.302;5.786;2023-06-14T07:20:46;6.18;;;3.05;;
57241;SDS011;43095;53.302;5.786;2023-06-14T07:23:14;6.30;;;3.33;;
57241;SDS011;43095;53.302;5.786;2023-06-14T07:25:41;8.43;;;3.00;;
57241;SDS011;43095;53.302;5.786;2023-06-14T07:28:08;4.05;;;3.08;;
57241;SDS011;43095;53.302;5.786;2023-06-14T07:30:35;5.18;;;2.90;;
57241;SDS011;43095;53.302;5.786;2023-06-14T07:33:01;5.45;;;3.17;;
57241;SDS011;43095;53.302;5.786;2023-06-14T07:35:28;6.60;;;2.55;;
57241;SDS011;43095;53.302;5.786;2023-06-14T07:37:55;7.43;;;2.83;;
57241;SDS011;43095;53.302;5.786;2023-06-14T07:40:22;5.55;;;2.80;;
57241;SDS011;43095;53.302;5.786;2023-06-14T07:42:49;4.35;;;2.53;;
57241;SDS011;43095;53.302;5.786;2023-06-14T07:45:16;3.47;;;2.40;;
57241;SDS011;43095;53.302;5.786;2023-06-14T07:47:44;3.70;;;2.22;;
57241;SDS011;43095;53.302;5.786;2023-06-14T07:50:11;4.07;;;2.63;;
57241;SDS011;43095;53.302;5.786;2023-06-14T07:52:39;5.57;;;2.22;;
57241;SDS011;43095;53.302;5.786;2023-06-14T07:55:06;4.25;;;2.40;;
57241;SDS011;43095;53.302;5.786;2023-06-14T07:57:33;3.95;;;2.28;;
57241;SDS011;43095;53.302;5.786;2023-06-14T08:00:00;6.40;;;2.40;;
57241;SDS011;43095;53.302;5.786;2023-06-14T08:02:37;5.20;;;2.60;;
57241;SDS011;43095;53.302;5.786;2023-06-14T08:05:04;9.52;;;2.30;;
57241;SDS011;43095;53.302;5.786;2023-06-14T08:07:31;5.68;;;2.67;;
57241;SDS011;43095;53.302;5.786;2023-06-14T08:09:58;5.00;;;2.53;;
57241;SDS011;43095;53.302;5.786;2023-06-14T08:12:24;3.28;;;2.20;;
57241;SDS011;43095;53.302;5.786;2023-06-14T08:14:51;4.10;;;2.70;;
57241;SDS011;43095;53.302;5.786;2023-06-14T08:17:38;4.63;;;1.85;;
57241;SDS011;43095;53.302;5.786;2023-06-14T08:20:05;5.47;;;2.35;;
57241;SDS011;43095;53.302;5.786;2023-06-14T08:22:32;4.65;;;2.50;;
57241;SDS011;43095;53.302;5.786;2023-06-14T08:25:00;3.33;;;2.33;;
57241;SDS011;43095;53.302;5.786;2023-06-14T08:27:27;5.38;;;2.70;;
57241;SDS011;43095;53.302;5.786;2023-06-14T08:29:56;3.30;;;2.50;;
57241;SDS011;43095;53.302;5.786;2023-06-14T08:32:25;5.45;;;2.50;;
57241;SDS011;43095;53.302;5.786;2023-06-14T08:34:52;4.78;;;2.30;;
57241;SDS011;43095;53.302;5.786;2023-06-14T08:37:31;4.25;;;2.00;;
57241;SDS011;43095;53.302;5.786;2023-06-14T08:40:00;10.00;;;3.65;;
57241;SDS011;43095;53.302;5.786;2023-06-14T08:42:28;9.98;;;3.05;;
57241;SDS011;43095;53.302;5.786;2023-06-14T08:44:58;9.18;;;2.53;;
57241;SDS011;43095;53.302;5.786;2023-06-14T08:47:26;6.60;;;2.90;;
57241;SDS011;43095;53.302;5.786;2023-06-14T08:49:53;8.88;;;3.00;;
57241;SDS011;43095;53.302;5.786;2023-06-14T08:52:23;4.05;;;2.22;;
57241;SDS011;43095;53.302;5.786;2023-06-14T08:54:56;4.22;;;2.35;;
57241;SDS011;43095;53.302;5.786;2023-06-14T08:57:24;3.13;;;2.03;;
57241;SDS011;43095;53.302;5.786;2023-06-14T08:59:51;3.28;;;2.20;;
57241;SDS011;43095;53.302;5.786;2023-06-14T09:02:20;7.53;;;3.20;;
57241;SDS011;43095;53.302;5.786;2023-06-14T09:04:48;5.18;;;2.15;;
57241;SDS011;43095;53.302;5.786;2023-06-14T09:07:18;5.10;;;2.92;;
57241;SDS011;43095;53.302;5.786;2023-06-14T09:09:45;4.75;;;2.20;;
57241;SDS011;43095;53.302;5.786;2023-06-14T09:12:32;6.43;;;2.03;;
57241;SDS011;43095;53.302;5.786;2023-06-14T09:15:00;7.47;;;2.22;;
57241;SDS011;43095;53.302;5.786;2023-06-14T09:17:32;4.85;;;2.17;;
57241;SDS011;43095;53.302;5.786;2023-06-14T09:20:00;3.72;;;2.58;;
57241;SDS011;43095;53.302;5.786;2023-06-14T09:22:29;4.53;;;2.55;;
57241;SDS011;43095;53.302;5.786;2023-06-14T09:24:56;4.38;;;2.75;;
57241;SDS011;43095;53.302;5.786;2023-06-14T09:27:23;3.65;;;2.70;;
57241;SDS011;43095;53.302;5.786;2023-06-14T09:29:53;6.30;;;2.45;;
57241;SDS011;43095;53.302;5.786;2023-06-14T09:32:20;8.10;;;2.53;;
57241;SDS011;43095;53.302;5.786;2023-06-14T09:34:47;6.20;;;2.40;;
57241;SDS011;43095;53.302;5.786;2023-06-14T09:37:27;6.18;;;2.30;;
57241;SDS011;43095;53.302;5.786;2023-06-14T09:39:58;6.10;;;2.20;;
57241;SDS011;43095;53.302;5.786;2023-06-14T09:42:25;5.35;;;2.75;;
57241;SDS011;43095;53.302;5.786;2023-06-14T09:44:53;8.27;;;2.70;;
57241;SDS011;43095;53.302;5.786;2023-06-14T09:47:21;7.63;;;2.20;;
57241;SDS011;43095;53.302;5.786;2023-06-14T09:49:48;3.90;;;1.98;;
57241;SDS011;43095;53.302;5.786;2023-06-14T09:52:18;4.32;;;2.22;;
57241;SDS011;43095;53.302;5.786;2023-06-14T09:54:46;3.92;;;2.30;;
57241;SDS011;43095;53.302;5.786;2023-06-14T09:57:15;6.43;;;2.08;;
57241;SDS011;43095;53.302;5.786;2023-06-14T09:59:43;7.00;;;2.13;;
57241;SDS011;43095;53.302;5.786;2023-06-14T10:05:09;9.40;;;2.40;;
57241;SDS011;43095;53.302;5.786;2023-06-14T10:07:39;4.63;;;2.28;;
57241;SDS011;43095;53.302;5.786;2023-06-14T10:10:06;5.50;;;1.90;;
57241;SDS011;43095;53.302;5.786;2023-06-14T10:12:34;7.90;;;1.98;;
57241;SDS011;43095;53.302;5.786;2023-06-14T10:15:00;9.85;;;2.72;;
57241;SDS011;43095;53.302;5.786;2023-06-14T10:17:40;6.25;;;2.20;;
57241;SDS011;43095;53.302;5.786;2023-06-14T10:25:49;6.85;;;2.00;;
57241;SDS011;43095;53.302;5.786;2023-06-14T10:28:18;5.78;;;1.90;;
57241;SDS011;43095;53.302;5.786;2023-06-14T10:31:01;4.90;;;1.50;;
57241;SDS011;43095;53.302;5.786;2023-06-14T10:33:31;3.97;;;1.60;;
57241;SDS011;43095;53.302;5.786;2023-06-14T10:36:24;5.00;;;2.30;;
57241;SDS011;43095;53.302;5.786;2023-06-14T10:41:34;3.30;;;2.00;;
57241;SDS011;43095;53.302;5.786;2023-06-14T10:47:05;5.03;;;2.53;;
57241;SDS011;43095;53.302;5.786;2023-06-14T10:49:44;5.55;;;2.17;;
57241;SDS011;43095;53.302;5.786;2023-06-14T10:52:12;5.38;;;2.33;;
57241;SDS011;43095;53.302;5.786;2023-06-14T10:57:52;3.75;;;2.08;;
57241;SDS011;43095;53.302;5.786;2023-06-14T11:00:25;4.78;;;2.03;;
57241;SDS011;43095;53.302;5.786;2023-06-14T11:05:35;6.00;;;2.20;;
57241;SDS011;43095;53.302;5.786;2023-06-14T11:11:17;5.72;;;2.22;;
57241;SDS011;43095;53.302;5.786;2023-06-14T11:13:45;6.30;;;2.10;;
57241;SDS011;43095;53.302;5.786;2023-06-14T11:16:14;10.75;;;2.33;;
57241;SDS011;43095;53.302;5.786;2023-06-14T11:18:42;9.95;;;3.47;;
57241;SDS011;43095;53.302;5.786;2023-06-14T11:21:09;9.18;;;2.60;;
57241;SDS011;43095;53.302;5.786;2023-06-14T11:23:36;4.70;;;2.75;;
57241;SDS011;43095;53.302;5.786;2023-06-14T11:26:03;7.70;;;2.45;;
57241;SDS011;43095;53.302;5.786;2023-06-14T11:28:39;3.53;;;2.75;;
57241;SDS011;43095;53.302;5.786;2023-06-14T11:31:07;6.32;;;2.75;;
57241;SDS011;43095;53.302;5.786;2023-06-14T11:33:34;4.68;;;2.35;;
57241;SDS011;43095;53.302;5.786;2023-06-14T11:36:02;6.57;;;2.30;;
57241;SDS011;43095;53.302;5.786;2023-06-14T11:38:34;3.40;;;2.20;;
57241;SDS011;43095;53.302;5.786;2023-06-14T11:41:01;4.88;;;2.58;;
57241;SDS011;43095;53.302;5.786;2023-06-14T11:43:28;5.18;;;2.63;;
57241;SDS011;43095;53.302;5.786;2023-06-14T11:45:58;4.07;;;2.70;;
57241;SDS011;43095;53.302;5.786;2023-06-14T11:48:40;3.08;;;1.90;;
57241;SDS011;43095;53.302;5.786;2023-06-14T11:51:08;11.80;;;2.80;;
57241;SDS011;43095;53.302;5.786;2023-06-14T11:53:35;6.63;;;2.13;;
57241;SDS011;43095;53.302;5.786;2023-06-14T11:56:02;5.03;;;3.17;;
57241;SDS011;43095;53.302;5.786;2023-06-14T11:58:29;3.45;;;2.65;;
57241;SDS011;43095;53.302;5.786;2023-06-14T12:00:57;6.50;;;2.72;;
57241;SDS011;43095;53.302;5.786;2023-06-14T12:03:25;6.38;;;3.17;;
57241;SDS011;43095;53.302;5.786;2023-06-14T12:06:06;7.03;;;3.20;;
57241;SDS011;43095;53.302;5.786;2023-06-14T12:08:37;5.18;;;2.88;;
57241;SDS011;43095;53.302;5.786;2023-06-14T12:11:10;8.13;;;2.78;;
57241;SDS011;43095;53.302;5.786;2023-06-14T12:13:38;4.68;;;2.67;;
57241;SDS011;43095;53.302;5.786;2023-06-14T12:16:07;6.65;;;2.85;;
57241;SDS011;43095;53.302;5.786;2023-06-14T12:18:36;8.10;;;3.17;;
57241;SDS011;43095;53.302;5.786;2023-06-14T12:21:04;5.40;;;2.53;;
57241;SDS011;43095;53.302;5.786;2023-06-14T12:23:42;5.18;;;2.75;;
57241;SDS011;43095;53.302;5.786;2023-06-14T12:26:17;6.68;;;2.78;;
57241;SDS011;43095;53.302;5.786;2023-06-14T12:28:45;4.20;;;2.72;;
57241;SDS011;43095;53.302;5.786;2023-06-14T12:31:14;5.60;;;2.33;;
57241;SDS011;43095;53.302;5.786;2023-06-14T12:33:42;9.15;;;3.35;;
57241;SDS011;43095;53.302;5.786;2023-06-14T12:36:09;7.10;;;2.97;;
57241;SDS011;43095;53.302;5.786;2023-06-14T12:38:37;7.65;;;2.95;;
57241;SDS011;43095;53.302;5.786;2023-06-14T12:41:04;9.05;;;3.80;;
57241;SDS011;43095;53.302;5.786;2023-06-14T12:43:31;7.05;;;3.40;;
57241;SDS011;43095;53.302;5.786;2023-06-14T12:45:57;9.60;;;3.70;;
57241;SDS011;43095;53.302;5.786;2023-06-14T12:48:24;6.80;;;3.20;;
57241;SDS011;43095;53.302;5.786;2023-06-14T12:50:53;5.22;;;3.10;;
57241;SDS011;43095;53.302;5.786;2023-06-14T12:53:20;14.65;;;3.83;;
57241;SDS011;43095;53.302;5.786;2023-06-14T12:55:47;11.55;;;3.47;;
57241;SDS011;43095;53.302;5.786;2023-06-14T12:58:14;5.97;;;3.60;;
57241;SDS011;43095;53.302;5.786;2023-06-14T13:00:43;8.80;;;4.03;;
57241;SDS011;43095;53.302;5.786;2023-06-14T13:03:10;8.43;;;3.45;;
57241;SDS011;43095;53.302;5.786;2023-06-14T13:05:37;7.95;;;3.10;;
57241;SDS011;43095;53.302;5.786;2023-06-14T13:08:07;6.72;;;3.30;;
57241;SDS011;43095;53.302;5.786;2023-06-14T13:10:37;7.85;;;3.38;;
57241;SDS011;43095;53.302;5.786;2023-06-14T13:13:04;6.40;;;3.38;;
57241;SDS011;43095;53.302;5.786;2023-06-14T13:15:31;8.80;;;3.00;;
57241;SDS011;43095;53.302;5.786;2023-06-14T13:17:58;6.57;;;3.10;;
57241;SDS011;43095;53.302;5.786;2023-06-14T13:20:25;9.05;;;3.70;;
57241;SDS011;43095;53.302;5.786;2023-06-14T13:22:51;8.77;;;3.10;;
57241;SDS011;43095;53.302;5.786;2023-06-14T13:25:18;7.65;;;3.17;;
57241;SDS011;43095;53.302;5.786;2023-06-14T13:27:45;11.48;;;4.05;;
57241;SDS011;43095;53.302;5.786;2023-06-14T13:30:12;10.80;;;3.00;;
57241;SDS011;43095;53.302;5.786;2023-06-14T13:32:39;6.85;;;3.42;;
57241;SDS011;43095;53.302;5.786;2023-06-14T13:35:06;7.32;;;3.22;;
57241;SDS011;43095;53.302;5.786;2023-06-14T13:37:33;8.52;;;3.70;;
57241;SDS011;43095;53.302;5.786;2023-06-14T13:40:00;12.25;;;3.70;;
57241;SDS011;43095;53.302;5.786;2023-06-14T13:42:27;10.02;;;3.25;;
57241;SDS011;43095;53.302;5.786;2023-06-14T13:44:58;10.70;;;3.13;;
57241;SDS011;43095;53.302;5.786;2023-06-14T13:47:25;6.88;;;2.85;;
57241;SDS011;43095;53.302;5.786;2023-06-14T13:49:52;7.78;;;3.03;;
57241;SDS011;43095;53.302;5.786;2023-06-14T13:52:19;7.68;;;3.30;;
57241;SDS011;43095;53.302;5.786;2023-06-14T13:54:45;7.15;;;3.40;;
57241;SDS011;43095;53.302;5.786;2023-06-14T13:57:15;11.57;;;3.70;;
57241;SDS011;43095;53.302;5.786;2023-06-14T13:59:42;11.50;;;3.47;;
57241;SDS011;43095;53.302;5.786;2023-06-14T14:02:11;7.00;;;3.72;;
57241;SDS011;43095;53.302;5.786;2023-06-14T14:04:38;10.75;;;3.95;;
57241;SDS011;43095;53.302;5.786;2023-06-14T14:07:06;8.40;;;3.22;;
57241;SDS011;43095;53.302;5.786;2023-06-14T14:09:34;10.02;;;3.42;;
57241;SDS011;43095;53.302;5.786;2023-06-14T14:12:01;10.82;;;3.33;;
57241;SDS011;43095;53.302;5.786;2023-06-14T14:14:30;10.57;;;3.90;;
57241;SDS011;43095;53.302;5.786;2023-06-14T14:16:58;9.20;;;3.20;;
57241;SDS011;43095;53.302;5.786;2023-06-14T14:19:25;8.75;;;3.60;;
57241;SDS011;43095;53.302;5.786;2023-06-14T14:21:52;8.43;;;3.65;;
57241;SDS011;43095;53.302;5.786;2023-06-14T14:24:20;9.18;;;3.58;;
57241;SDS011;43095;53.302;5.786;2023-06-14T14:26:47;10.95;;;3.92;;
57241;SDS011;43095;53.302;5.786;2023-06-14T14:29:16;11.40;;;3.22;;
57241;SDS011;43095;53.302;5.786;2023-06-14T14:31:43;7.10;;;3.30;;
57241;SDS011;43095;53.302;5.786;2023-06-14T14:34:10;9.63;;;3.45;;
57241;SDS011;43095;53.302;5.786;2023-06-14T14:36:37;10.60;;;3.47;;
57241;SDS011;43095;53.302;5.786;2023-06-14T14:39:08;8.30;;;3.80;;
57241;SDS011;43095;53.302;5.786;2023-06-14T14:41:35;8.45;;;3.30;;
57241;SDS011;43095;53.302;5.786;2023-06-14T14:44:07;9.90;;;3.15;;
57241;SDS011;43095;53.302;5.786;2023-06-14T14:46:34;6.03;;;3.47;;
57241;SDS011;43095;53.302;5.786;2023-06-14T14:49:01;8.82;;;3.17;;
57241;SDS011;43095;53.302;5.786;2023-06-14T14:51:29;12.05;;;3.78;;
57241;SDS011;43095;53.302;5.786;2023-06-14T14:53:56;7.72;;;3.00;;
57241;SDS011;43095;53.302;5.786;2023-06-14T14:56:22;10.05;;;3.33;;
57241;SDS011;43095;53.302;5.786;2023-06-14T14:58:50;12.13;;;3.25;;
57241;SDS011;43095;53.302;5.786;2023-06-14T15:01:17;10.77;;;3.53;;
57241;SDS011;43095;53.302;5.786;2023-06-14T15:03:44;6.95;;;2.95;;
57241;SDS011;43095;53.302;5.786;2023-06-14T15:06:14;7.78;;;3.28;;
57241;SDS011;43095;53.302;5.786;2023-06-14T15:08:41;10.50;;;3.50;;
57241;SDS011;43095;53.302;5.786;2023-06-14T15:11:08;8.68;;;2.97;;
57241;SDS011;43095;53.302;5.786;2023-06-14T15:13:35;10.18;;;3.38;;
57241;SDS011;43095;53.302;5.786;2023-06-14T15:16:01;5.65;;;2.90;;
57241;SDS011;43095;53.302;5.786;2023-06-14T15:18:28;9.88;;;3.58;;
57241;SDS011;43095;53.302;5.786;2023-06-14T15:20:55;14.00;;;3.67;;
57241;SDS011;43095;53.302;5.786;2023-06-14T15:23:22;9.40;;;3.08;;